createdAt,value
2023-04-28T00:01:56.557Z,0.90
2023-04-28T00:04:24.381Z,0.90
2023-04-28T00:06:52.206Z,0.90
2023-04-28T00:09:19.653Z,1.10
2023-04-28T00:11:47.129Z,1.10
2023-04-28T00:14:14.863Z,0.80
2023-04-28T00:16:42.980Z,1.00
2023-04-28T00:19:10.615Z,1.00
2023-04-28T00:21:37.890Z,0.83
2023-04-28T00:24:05.447Z,0.80
2023-04-28T00:26:32.726Z,0.90
2023-04-28T00:29:00.013Z,0.90
2023-04-28T00:31:27.514Z,1.03
2023-04-28T00:33:54.849Z,1.10
2023-04-28T00:36:22.126Z,1.03
2023-04-28T00:38:49.536Z,1.10
2023-04-28T00:41:16.928Z,1.20
2023-04-28T00:43:48.135Z,1.17
2023-04-28T00:46:21.768Z,1.10
2023-04-28T00:48:50.054Z,1.10
2023-04-28T00:51:17.924Z,1.00
2023-04-28T00:53:45.646Z,0.70
2023-04-28T00:56:13.244Z,1.00
2023-04-28T00:58:41.417Z,0.90
2023-04-28T01:01:09.898Z,1.00
2023-04-28T01:03:38.969Z,0.83
2023-04-28T01:06:07.339Z,1.00
2023-04-28T01:08:35.653Z,1.10
2023-04-28T01:11:05.852Z,1.03
2023-04-28T01:13:33.521Z,1.30
2023-04-28T01:16:01.652Z,0.77
2023-04-28T01:18:29.248Z,0.90
2023-04-28T01:20:56.652Z,1.00
2023-04-28T01:23:24.091Z,1.07
2023-04-28T01:25:51.686Z,0.80
2023-04-28T01:28:19.047Z,1.10
2023-04-28T01:30:46.527Z,1.10
2023-04-28T01:33:13.767Z,0.90
2023-04-28T01:35:41.371Z,1.00
2023-04-28T01:38:08.741Z,1.10
2023-04-28T01:40:36.493Z,1.27
2023-04-28T01:43:06.326Z,1.00
2023-04-28T01:45:33.764Z,1.40
2023-04-28T01:48:01.259Z,0.87
2023-04-28T01:50:28.586Z,1.33
2023-04-28T01:52:55.959Z,1.00
2023-04-28T01:55:23.268Z,0.87
2023-04-28T01:57:50.645Z,1.37
2023-04-28T02:00:18.291Z,1.13
2023-04-28T02:02:45.829Z,1.00
2023-04-28T02:05:13.294Z,1.10
2023-04-28T02:07:41.310Z,1.50
2023-04-28T02:10:09.133Z,1.10
2023-04-28T02:12:36.507Z,1.20
2023-04-28T02:15:06.078Z,1.03
2023-04-28T02:17:33.500Z,1.07
2023-04-28T02:20:01.013Z,1.13
2023-04-28T02:22:28.344Z,1.00
2023-04-28T02:24:55.727Z,1.23
2023-04-28T02:27:23.169Z,1.43
2023-04-28T02:29:50.652Z,1.00
2023-04-28T02:32:17.972Z,1.07
2023-04-28T02:34:45.324Z,1.40
2023-04-28T02:37:12.820Z,1.20
2023-04-28T02:39:40.247Z,2.30
2023-04-28T02:42:07.606Z,1.27
2023-04-28T02:44:35.026Z,1.10
2023-04-28T02:47:02.712Z,1.03
2023-04-28T02:49:30.170Z,1.10
2023-04-28T02:51:57.599Z,0.90
2023-04-28T02:54:28.160Z,1.00
2023-04-28T02:56:55.907Z,1.20
2023-04-28T02:59:23.928Z,1.10
2023-04-28T03:01:54.905Z,1.00
2023-04-28T03:04:22.704Z,0.90
2023-04-28T03:06:50.462Z,1.10
2023-04-28T03:09:17.897Z,1.10
2023-04-28T03:11:45.391Z,1.30
2023-04-28T03:14:12.689Z,1.00
2023-04-28T03:16:40.086Z,1.20
2023-04-28T03:19:10.569Z,1.20
2023-04-28T03:21:37.990Z,1.30
2023-04-28T03:24:06.082Z,1.07
2023-04-28T03:26:33.588Z,1.20
2023-04-28T03:29:01.086Z,1.10
2023-04-28T03:31:28.484Z,1.13
2023-04-28T03:33:55.883Z,1.23
2023-04-28T03:36:23.235Z,1.80
2023-04-28T03:38:50.594Z,1.03
2023-04-28T03:41:18.767Z,1.30
2023-04-28T03:43:46.446Z,1.40
2023-04-28T03:46:13.938Z,1.50
2023-04-28T03:48:41.291Z,1.10
2023-04-28T03:51:11.892Z,1.07
2023-04-28T03:53:39.248Z,1.20
2023-04-28T03:56:07.093Z,1.20
2023-04-28T03:58:34.530Z,1.50
2023-04-28T04:01:02.004Z,1.17
2023-04-28T04:03:29.508Z,1.30
2023-04-28T04:05:57.530Z,1.07
2023-04-28T04:08:24.927Z,1.30
2023-04-28T04:10:53.189Z,1.10
2023-04-28T04:13:21.005Z,1.10
2023-04-28T04:15:48.379Z,1.10
2023-04-28T04:18:15.952Z,1.00
2023-04-28T04:20:43.399Z,1.30
2023-04-28T04:23:11.994Z,1.30
2023-04-28T04:25:39.383Z,0.93
2023-04-28T04:28:06.825Z,1.07
2023-04-28T04:30:34.287Z,1.30
2023-04-28T04:33:01.812Z,1.27
2023-04-28T04:35:29.451Z,0.90
2023-04-28T04:37:56.813Z,1.30
2023-04-28T04:40:24.130Z,1.30
2023-04-28T04:42:51.499Z,1.23
2023-04-28T04:45:18.805Z,1.37
2023-04-28T04:47:46.285Z,1.20
2023-04-28T04:50:13.950Z,1.20
2023-04-28T04:52:41.472Z,1.30
2023-04-28T04:55:12.317Z,1.53
2023-04-28T04:57:39.726Z,1.30
2023-04-28T05:00:07.405Z,1.30
2023-04-28T05:02:34.838Z,1.47
2023-04-28T05:05:16.737Z,1.23
2023-04-28T05:07:48.778Z,1.80
2023-04-28T05:10:16.378Z,1.80
2023-04-28T05:12:46.189Z,1.03
2023-04-28T05:15:16.048Z,1.53
2023-04-28T05:17:43.487Z,1.50
2023-04-28T05:20:12.755Z,1.30
2023-04-28T05:22:40.815Z,1.63
2023-04-28T05:25:08.537Z,1.37
2023-04-28T05:27:39.387Z,1.30
2023-04-28T05:30:08.527Z,1.40
2023-04-28T05:32:36.505Z,1.40
2023-04-28T05:35:04.044Z,1.30
2023-04-28T05:37:31.388Z,1.40
2023-04-28T05:39:58.765Z,1.63
2023-04-28T05:42:26.113Z,1.40
2023-04-28T05:44:53.524Z,1.33
2023-04-28T05:47:20.887Z,2.23
2023-04-28T05:49:48.367Z,2.13
2023-04-28T05:52:16.044Z,2.57
2023-04-28T05:54:43.372Z,1.80
2023-04-28T05:57:10.764Z,1.37
2023-04-28T05:59:38.690Z,1.67
2023-04-28T06:02:06.045Z,1.30
2023-04-28T06:04:33.764Z,1.60
2023-04-28T06:07:01.332Z,1.60
2023-04-28T06:09:28.713Z,1.93
2023-04-28T06:11:56.088Z,1.47
2023-04-28T06:14:23.970Z,1.77
2023-04-28T06:16:51.983Z,1.30
2023-04-28T06:19:19.434Z,1.50
2023-04-28T06:21:47.218Z,1.40
2023-04-28T06:24:14.688Z,1.10
2023-04-28T06:26:42.125Z,1.40
2023-04-28T06:29:09.478Z,1.30
2023-04-28T06:31:36.876Z,1.67
2023-04-28T06:34:04.541Z,1.63
2023-04-28T06:36:33.173Z,1.33
2023-04-28T06:39:00.929Z,1.20
2023-04-28T06:41:29.439Z,1.40
2023-04-28T06:43:56.838Z,1.47
2023-04-28T06:46:24.352Z,1.30
2023-04-28T06:48:51.839Z,1.10
2023-04-28T06:51:19.065Z,1.30
2023-04-28T06:53:46.441Z,1.20
2023-04-28T06:56:14.919Z,1.30
2023-04-28T06:58:42.467Z,2.07
2023-04-28T07:01:09.875Z,1.60
2023-04-28T07:03:37.404Z,1.80
2023-04-28T07:06:05.165Z,2.30
2023-04-28T07:08:32.634Z,1.97
2023-04-28T07:11:00.069Z,1.70
2023-04-28T07:13:27.455Z,2.17
2023-04-28T07:15:54.972Z,1.57
2023-04-28T07:18:22.431Z,1.80
2023-04-28T07:20:49.892Z,1.80
2023-04-28T07:23:17.216Z,1.67
2023-04-28T07:25:44.680Z,1.57
2023-04-28T07:28:12.323Z,2.13
2023-04-28T07:30:39.608Z,1.40
2023-04-28T07:33:07.012Z,1.60
2023-04-28T07:35:34.518Z,1.73
2023-04-28T07:38:03.193Z,1.60
2023-04-28T07:40:30.444Z,1.80
2023-04-28T07:42:58.035Z,2.20
2023-04-28T07:45:26.381Z,1.50
2023-04-28T07:47:53.849Z,1.70
2023-04-28T07:50:21.351Z,1.70
2023-04-28T07:52:49.114Z,1.70
2023-04-28T07:55:19.784Z,1.57
2023-04-28T07:57:47.057Z,1.67
2023-04-28T08:00:14.752Z,1.77
2023-04-28T08:02:42.279Z,1.53
2023-04-28T08:05:10.462Z,1.40
2023-04-28T08:07:38.632Z,1.50
2023-04-28T08:10:06.568Z,1.50
2023-04-28T08:12:33.943Z,1.33
2023-04-28T08:15:01.561Z,1.40
2023-04-28T08:17:28.895Z,1.10
2023-04-28T08:19:56.202Z,1.30
2023-04-28T08:22:23.491Z,1.20
2023-04-28T08:24:50.996Z,0.80
2023-04-28T08:27:18.500Z,1.00
2023-04-28T08:29:45.811Z,1.00
2023-04-28T08:32:13.308Z,1.00
2023-04-28T08:34:40.633Z,0.87
2023-04-28T08:37:08.137Z,1.03
2023-04-28T08:39:35.806Z,1.33
2023-04-28T08:42:06.284Z,1.00
2023-04-28T08:44:39.243Z,1.03
2023-04-28T08:47:17.944Z,0.90
2023-04-28T08:49:45.398Z,1.03
2023-04-28T08:52:13.566Z,0.90
2023-04-28T08:54:41.720Z,0.90
2023-04-28T08:57:12.461Z,1.00
2023-04-28T08:59:41.378Z,1.10
2023-04-28T09:02:12.095Z,1.00
2023-04-28T09:04:39.794Z,0.80
2023-04-28T09:07:13.892Z,0.80
2023-04-28T09:09:41.553Z,0.80
2023-04-28T09:12:09.236Z,1.20
2023-04-28T09:14:37.503Z,1.00
2023-04-28T09:17:11.114Z,0.90
2023-04-28T09:19:39.222Z,1.10
2023-04-28T09:22:21.724Z,1.00
2023-04-28T09:24:55.506Z,1.20
2023-04-28T09:27:28.403Z,1.00
2023-04-28T09:29:56.194Z,0.93
2023-04-28T09:32:24.769Z,1.80
2023-04-28T09:34:53.913Z,1.10
2023-04-28T09:37:22.850Z,1.50
2023-04-28T09:39:51.100Z,1.00
2023-04-28T09:42:37.994Z,0.90
2023-04-28T09:45:09.132Z,0.90
2023-04-28T09:47:37.944Z,0.90
2023-04-28T09:50:06.864Z,0.70
2023-04-28T09:52:35.212Z,0.80
2023-04-28T09:55:03.599Z,0.70
2023-04-28T09:57:32.879Z,0.80
2023-04-28T10:00:00.770Z,0.60
2023-04-28T10:04:59.921Z,0.73
2023-04-28T10:07:28.681Z,0.80
2023-04-28T10:09:56.526Z,0.70
2023-04-28T10:12:25.479Z,0.80
2023-04-28T10:14:56.600Z,0.80
2023-04-28T10:17:29.682Z,0.57
2023-04-28T10:19:57.699Z,0.87
2023-04-28T10:22:32.682Z,0.90
2023-04-28T10:25:04.530Z,0.70
2023-04-28T10:27:32.094Z,0.60
2023-04-28T10:30:22.865Z,0.70
2023-04-28T10:33:12.271Z,0.80
2023-04-28T10:35:41.045Z,0.90
2023-04-28T10:38:11.191Z,0.50
2023-04-28T10:40:42.519Z,0.70
2023-04-28T10:43:10.684Z,0.93
2023-04-28T10:46:01.350Z,0.70
2023-04-28T10:48:35.211Z,0.90
2023-04-28T10:51:09.810Z,0.60
2023-04-28T10:53:47.193Z,0.60
2023-04-28T10:56:21.855Z,0.68
2023-04-28T10:58:52.741Z,0.90
2023-04-28T11:01:20.044Z,0.73
2023-04-28T11:04:08.286Z,0.90
2023-04-28T11:06:40.274Z,0.50
2023-04-28T11:09:17.597Z,0.60
2023-04-28T11:12:05.850Z,0.88
2023-04-28T11:14:36.664Z,0.70
2023-04-28T11:17:04.086Z,0.73
2023-04-28T11:19:31.730Z,0.70
2023-04-28T11:21:59.800Z,0.60
2023-04-28T11:24:29.044Z,0.57
2023-04-28T11:26:56.975Z,0.70
2023-04-28T11:29:37.532Z,0.80
2023-04-28T11:32:09.422Z,0.80
2023-04-28T11:34:37.635Z,0.70
2023-04-28T11:37:07.275Z,0.70
2023-04-28T11:39:35.015Z,0.60
2023-04-28T11:42:03.173Z,0.60
2023-04-28T11:44:33.133Z,0.57
2023-04-28T11:47:02.096Z,0.50
2023-04-28T11:49:30.877Z,0.65
2023-04-28T11:52:00.584Z,0.60
2023-04-28T11:54:29.280Z,0.60
2023-04-28T11:56:57.759Z,0.70
2023-04-28T11:59:28.399Z,0.52
2023-04-28T12:01:59.738Z,0.70
2023-04-28T12:04:41.126Z,0.60
2023-04-28T12:07:13.373Z,0.50
2023-04-28T12:09:42.899Z,0.40
2023-04-28T12:12:12.079Z,0.40
2023-04-28T12:15:19.500Z,0.73
2023-04-28T12:17:48.813Z,0.80
2023-04-28T12:20:35.375Z,0.90
2023-04-28T12:23:03.052Z,0.40
2023-04-28T12:25:30.775Z,0.30
2023-04-28T12:28:04.529Z,0.35
2023-04-28T12:30:33.487Z,0.40
2023-04-28T12:33:01.106Z,0.20
2023-04-28T12:35:29.447Z,0.30
2023-04-28T12:37:58.705Z,0.20
2023-04-28T12:40:26.332Z,0.22
2023-04-28T12:42:54.003Z,0.30
2023-04-28T12:45:21.343Z,0.25
2023-04-28T12:47:48.791Z,0.25
2023-04-28T12:50:16.127Z,0.30
2023-04-28T12:52:43.447Z,0.20
2023-04-28T12:55:10.973Z,0.22
2023-04-28T12:57:39.719Z,0.43
2023-04-28T13:00:08.386Z,0.28
2023-04-28T13:02:36.172Z,0.50
2023-04-28T13:05:03.740Z,0.43
2023-04-28T13:07:32.069Z,0.30
2023-04-28T13:09:59.790Z,0.40
2023-04-28T13:12:27.310Z,0.30
2023-04-28T13:14:54.642Z,0.40
2023-04-28T13:17:22.481Z,0.25
2023-04-28T13:19:49.826Z,0.50
2023-04-28T13:22:17.341Z,0.40
2023-04-28T13:24:44.907Z,0.50
2023-04-28T13:27:12.393Z,0.40
2023-04-28T13:29:40.361Z,0.30
2023-04-28T13:32:07.953Z,0.40
2023-04-28T13:34:35.366Z,0.40
2023-04-28T13:37:03.512Z,0.30
2023-04-28T13:39:30.849Z,0.40
2023-04-28T13:41:58.255Z,0.40
2023-04-28T13:44:25.752Z,0.40
2023-04-28T13:46:53.970Z,0.50
2023-04-28T13:49:22.406Z,0.43
2023-04-28T13:51:49.786Z,0.50
2023-04-28T13:54:17.251Z,0.35
2023-04-28T13:56:44.620Z,0.50
2023-04-28T13:59:12.291Z,0.50
2023-04-28T14:01:39.744Z,0.60
2023-04-28T14:04:07.474Z,0.40
2023-04-28T14:06:35.086Z,0.50
2023-04-28T14:09:02.928Z,0.50
2023-04-28T14:11:30.265Z,0.40
2023-04-28T14:13:57.581Z,0.50
2023-04-28T14:16:24.965Z,0.40
2023-04-28T14:18:52.322Z,0.40
2023-04-28T14:21:19.648Z,0.60
2023-04-28T14:23:47.524Z,0.40
2023-04-28T14:26:14.927Z,0.50
2023-04-28T14:28:42.413Z,0.45
2023-04-28T14:31:09.868Z,0.45
2023-04-28T14:33:37.398Z,0.50
2023-04-28T14:36:05.435Z,0.50
2023-04-28T14:38:33.002Z,0.88
2023-04-28T14:41:00.507Z,0.40
2023-04-28T14:43:27.884Z,0.70
2023-04-28T14:45:55.274Z,0.80
2023-04-28T14:48:22.683Z,0.50
2023-04-28T14:50:51.524Z,0.50
2023-04-28T14:53:18.899Z,0.47
2023-04-28T14:55:46.244Z,0.40
2023-04-28T14:58:13.598Z,0.40
2023-04-28T15:00:41.259Z,0.50
2023-04-28T15:03:08.716Z,0.43
2023-04-28T15:05:36.248Z,1.48
2023-04-28T15:08:03.801Z,0.40
2023-04-28T15:10:34.085Z,0.40
2023-04-28T15:13:01.829Z,0.40
2023-04-28T15:15:29.365Z,0.40
2023-04-28T15:18:01.149Z,0.57
2023-04-28T15:20:30.666Z,0.40
2023-04-28T15:22:59.058Z,0.43
2023-04-28T15:25:27.415Z,0.40
2023-04-28T15:27:55.084Z,0.43
2023-04-28T15:30:22.654Z,0.43
2023-04-28T15:32:50.644Z,0.50
2023-04-28T15:35:18.122Z,0.50
2023-04-28T15:37:47.852Z,0.52
2023-04-28T15:40:16.834Z,0.40
2023-04-28T15:42:52.913Z,0.40
2023-04-28T15:45:20.958Z,0.40
2023-04-28T15:47:50.596Z,0.60
2023-04-28T15:50:20.333Z,0.60
2023-04-28T15:52:50.030Z,0.60
2023-04-28T15:55:18.612Z,0.40
2023-04-28T15:57:46.703Z,0.60
2023-04-28T16:00:17.051Z,0.60
2023-04-28T16:02:45.185Z,0.30
2023-04-28T16:05:12.950Z,0.38
2023-04-28T16:07:43.845Z,0.57
2023-04-28T16:10:12.711Z,0.70
2023-04-28T16:12:41.182Z,0.60
2023-04-28T16:15:09.968Z,0.35
2023-04-28T16:17:41.007Z,0.47
2023-04-28T16:20:09.951Z,0.40
2023-04-28T16:22:38.056Z,0.40
2023-04-28T16:25:06.735Z,0.60
2023-04-28T16:27:34.795Z,0.40
2023-04-28T16:30:02.198Z,0.40
2023-04-28T16:32:30.820Z,0.45
2023-04-28T16:34:58.727Z,0.50
2023-04-28T16:37:26.469Z,0.50
2023-04-28T16:39:53.862Z,0.50
2023-04-28T16:42:22.523Z,0.47
2023-04-28T16:44:52.466Z,0.50
2023-04-28T16:47:20.557Z,0.60
2023-04-28T16:49:48.788Z,0.50
2023-04-28T16:52:16.934Z,0.40
2023-04-28T16:54:44.607Z,0.40
2023-04-28T16:57:11.967Z,0.50
2023-04-28T16:59:39.262Z,0.45
2023-04-28T17:02:07.052Z,0.75
2023-04-28T17:04:34.994Z,0.60
2023-04-28T17:07:04.849Z,0.50
2023-04-28T17:09:33.360Z,0.50
2023-04-28T17:12:01.257Z,0.47
2023-04-28T17:14:28.677Z,0.38
2023-04-28T17:16:56.719Z,0.70
2023-04-28T17:19:24.351Z,0.50
2023-04-28T17:21:52.925Z,0.57
2023-04-28T17:24:20.326Z,0.47
2023-04-28T17:26:47.664Z,0.45
2023-04-28T17:29:15.672Z,0.43
2023-04-28T17:31:43.052Z,0.40
2023-04-28T17:34:10.572Z,0.43
2023-04-28T17:36:37.892Z,0.60
2023-04-28T17:39:05.254Z,0.60
2023-04-28T17:41:32.609Z,0.70
2023-04-28T17:44:00.275Z,0.60
2023-04-28T17:46:28.006Z,0.52
2023-04-28T17:48:55.369Z,0.68
2023-04-28T17:51:22.731Z,0.50
2023-04-28T17:53:50.128Z,0.50
2023-04-28T17:56:17.490Z,0.40
2023-04-28T17:58:45.091Z,0.60
2023-04-28T18:01:12.413Z,0.63
2023-04-28T18:03:40.405Z,0.57
2023-04-28T18:06:08.366Z,0.45
2023-04-28T18:08:37.025Z,0.75
2023-04-28T18:11:05.196Z,0.60
2023-04-28T18:13:33.298Z,0.57
2023-04-28T18:16:01.360Z,0.63
2023-04-28T18:18:30.591Z,0.50
2023-04-28T18:20:59.872Z,0.68
2023-04-28T18:23:27.701Z,0.50
2023-04-28T18:25:55.048Z,0.52
2023-04-28T18:28:22.761Z,0.47
2023-04-28T18:30:50.004Z,0.50
2023-04-28T18:33:19.941Z,0.52
2023-04-28T18:35:49.674Z,0.50
2023-04-28T18:38:17.044Z,0.80
2023-04-28T18:40:44.362Z,0.70
2023-04-28T18:43:11.919Z,0.55
2023-04-28T18:45:41.338Z,1.10
2023-04-28T18:48:09.935Z,0.50
2023-04-28T18:50:37.888Z,0.52
2023-04-28T18:53:05.466Z,0.75
2023-04-28T18:55:36.004Z,0.60
2023-04-28T18:58:04.184Z,0.60
2023-04-28T19:00:32.887Z,0.60
2023-04-28T19:03:01.995Z,0.55
2023-04-28T19:05:31.771Z,0.40
2023-04-28T19:08:00.368Z,0.50
2023-04-28T19:10:27.687Z,0.60
2023-04-28T19:12:56.259Z,0.60
2023-04-28T19:15:24.129Z,0.60
2023-04-28T19:17:51.981Z,0.75
2023-04-28T19:20:19.516Z,1.00
2023-04-28T19:22:47.289Z,0.60
2023-04-28T19:25:15.924Z,0.65
2023-04-28T19:27:43.741Z,0.60
2023-04-28T19:30:12.405Z,0.60
2023-04-28T19:32:43.014Z,0.77
2023-04-28T19:35:10.927Z,0.70
2023-04-28T19:37:38.911Z,0.80
2023-04-28T19:40:07.452Z,0.60
2023-04-28T19:42:35.416Z,0.60
2023-04-28T19:45:02.930Z,0.70
2023-04-28T19:47:34.080Z,0.75
2023-04-28T19:50:01.648Z,0.60
2023-04-28T19:52:29.130Z,0.55
2023-04-28T19:54:57.371Z,0.95
2023-04-28T19:57:24.819Z,1.10
2023-04-28T19:59:52.459Z,0.82
2023-04-28T20:02:21.182Z,0.82
2023-04-28T20:04:49.208Z,0.65
2023-04-28T20:07:16.917Z,1.08
2023-04-28T20:09:45.167Z,0.70
2023-04-28T20:12:12.677Z,0.93
2023-04-28T20:14:40.018Z,0.90
2023-04-28T20:17:09.252Z,1.02
2023-04-28T20:19:37.098Z,1.00
2023-04-28T20:22:08.216Z,0.90
2023-04-28T20:24:36.536Z,1.00
2023-04-28T20:27:04.431Z,0.55
2023-04-28T20:29:34.882Z,0.65
2023-04-28T20:32:03.549Z,0.50
2023-04-28T20:34:34.291Z,0.40
2023-04-28T20:37:06.826Z,0.22
2023-04-28T20:39:37.142Z,0.40
2023-04-28T20:42:04.605Z,0.30
2023-04-28T20:44:32.324Z,0.50
2023-04-28T20:47:01.602Z,0.30
2023-04-28T20:49:29.366Z,0.47
2023-04-28T20:52:03.136Z,0.30
2023-04-28T20:54:32.826Z,0.40
2023-04-28T20:57:00.927Z,0.33
2023-04-28T20:59:29.949Z,0.47
2023-04-28T21:01:58.421Z,0.70
2023-04-28T21:04:25.939Z,0.50
2023-04-28T21:06:53.488Z,0.40
2023-04-28T21:09:21.088Z,0.40
2023-04-28T21:11:48.479Z,0.40
2023-04-28T21:14:15.765Z,0.30
2023-04-28T21:16:46.264Z,0.20
2023-04-28T21:19:13.690Z,0.20
2023-04-28T21:21:41.253Z,0.20
2023-04-28T21:24:09.416Z,0.40
2023-04-28T21:26:37.148Z,0.40
2023-04-28T21:29:04.606Z,0.30
2023-04-28T21:31:32.162Z,0.40
2023-04-28T21:33:59.540Z,0.50
2023-04-28T21:36:27.008Z,0.53
2023-04-28T21:38:54.291Z,0.20
2023-04-28T21:41:21.811Z,0.50
2023-04-28T21:43:49.333Z,0.50
2023-04-28T21:46:18.629Z,0.70
2023-04-28T21:48:46.445Z,0.80
2023-04-28T21:51:14.757Z,0.70
2023-04-28T21:53:42.326Z,0.43
2023-04-28T21:56:09.782Z,0.50
2023-04-28T21:58:37.165Z,0.57
2023-04-28T22:01:05.474Z,0.60
2023-04-28T22:03:38.993Z,0.70
2023-04-28T22:06:06.495Z,0.50
2023-04-28T22:08:36.844Z,0.70
2023-04-28T22:11:05.013Z,0.80
2023-04-28T22:13:32.390Z,0.50
2023-04-28T22:16:00.253Z,0.60
2023-04-28T22:18:27.727Z,0.80
2023-04-28T22:20:55.105Z,0.50
2023-04-28T22:23:22.648Z,0.40
2023-04-28T22:25:50.104Z,0.80
2023-04-28T22:28:18.139Z,0.50
2023-04-28T22:30:47.643Z,0.80
2023-04-28T22:33:15.377Z,0.80
2023-04-28T22:35:42.709Z,0.63
2023-04-28T22:38:10.087Z,0.70
2023-04-28T22:40:42.446Z,0.90
2023-04-28T22:43:10.215Z,0.60
2023-04-28T22:45:38.698Z,0.70
2023-04-28T22:48:06.315Z,0.63
2023-04-28T22:50:33.974Z,0.50
2023-04-28T22:53:01.293Z,0.40
2023-04-28T22:55:28.811Z,0.70
2023-04-28T22:57:56.603Z,0.60
2023-04-28T23:00:24.213Z,0.80
2023-04-28T23:02:51.661Z,0.70
2023-04-28T23:05:19.209Z,0.60
2023-04-28T23:07:46.779Z,0.70
2023-04-28T23:10:14.775Z,0.60
2023-04-28T23:12:42.200Z,0.30
2023-04-28T23:15:09.769Z,0.60
2023-04-28T23:17:37.496Z,0.30
2023-04-28T23:20:05.421Z,0.40
2023-04-28T23:22:32.865Z,0.60
2023-04-28T23:25:00.212Z,0.50
2023-04-28T23:27:27.688Z,0.60
2023-04-28T23:29:55.072Z,0.60
2023-04-28T23:32:22.799Z,0.50
2023-04-28T23:34:50.165Z,0.60
2023-04-28T23:37:17.443Z,0.73
2023-04-28T23:39:44.744Z,0.60
2023-04-28T23:42:12.120Z,0.60
2023-04-28T23:44:39.453Z,0.70
2023-04-28T23:47:06.752Z,0.70
2023-04-28T23:49:34.124Z,0.70
2023-04-28T23:52:01.519Z,0.50
2023-04-28T23:54:28.933Z,0.70
2023-04-28T23:56:57.051Z,0.80
2023-04-28T23:59:24.455Z,0.70
